Time;durP1;ratioP1;P1;durP2;ratioP2;P2;SDS_P1;SDS_P2;PMS_P1;PMS_P2;Temp;Humidity;BMP_temperature;BMP_pressure;BME280_temperature;BME280_humidity;BME280_pressure;Samples;Min_cycle;Max_cycle;Signal;HPM_P1;HPM_P2
2022/07/05 00:00:49;;;;;;;1999.90;999.90;;;10.90;99.90;;;;;;5067582;28;20123;-75
2022/07/05 00:03:15;;;;;;;1999.90;999.90;;;10.90;99.90;;;;;;5069923;28;20044;-75
2022/07/05 00:05:40;;;;;;;1999.90;999.90;;;10.90;99.90;;;;;;5047809;28;20041;-75
2022/07/05 00:08:07;;;;;;;1999.90;999.90;;;10.80;99.90;;;;;;5070647;28;20051;-75
2022/07/05 00:10:34;;;;;;;1999.90;999.90;;;10.80;99.90;;;;;;5096939;28;20088;-75
2022/07/05 00:13:00;;;;;;;1999.90;999.90;;;10.80;99.90;;;;;;5069152;28;20039;-75
2022/07/05 00:15:26;;;;;;;1999.90;999.90;;;10.70;99.90;;;;;;5067795;28;20088;-75
2022/07/05 00:17:52;;;;;;;1999.90;999.90;;;10.70;99.90;;;;;;5086178;28;20521;-75
2022/07/05 00:20:17;;;;;;;1999.90;999.90;;;10.60;99.90;;;;;;5076828;28;20123;-75
2022/07/05 00:22:43;;;;;;;1999.90;999.90;;;10.60;99.90;;;;;;5049532;28;20043;-75
2022/07/05 00:25:09;;;;;;;1999.90;999.90;;;10.60;99.90;;;;;;5086199;28;20048;-75
2022/07/05 00:27:35;;;;;;;1999.90;999.90;;;10.50;99.90;;;;;;5068848;28;20047;-75
2022/07/05 00:30:00;;;;;;;1999.90;999.90;;;10.50;99.90;;;;;;5085218;28;20048;-75
2022/07/05 00:32:26;;;;;;;1999.90;999.90;;;10.50;99.90;;;;;;5070159;28;20047;-75
2022/07/05 00:34:52;;;;;;;1999.90;999.90;;;10.40;99.90;;;;;;5063535;28;20037;-75
2022/07/05 00:37:17;;;;;;;1999.90;999.90;;;10.40;99.90;;;;;;5071836;28;20043;-75
2022/07/05 00:39:43;;;;;;;1999.90;999.90;;;10.40;99.90;;;;;;5068725;28;20497;-75
2022/07/05 00:42:09;;;;;;;1999.90;999.90;;;10.30;99.90;;;;;;5084340;28;20044;-75
2022/07/05 00:44:39;;;;;;;1999.90;999.90;;;10.30;99.90;;;;;;5054539;28;20040;-75
2022/07/05 00:47:05;;;;;;;1999.90;999.90;;;10.30;99.90;;;;;;5068928;28;20164;-75
2022/07/05 00:49:33;;;;;;;1999.90;999.90;;;10.30;99.90;;;;;;5103264;28;20173;-75
2022/07/05 00:51:59;;;;;;;1999.90;999.90;;;10.30;99.90;;;;;;5051319;28;20037;-75
2022/07/05 00:54:29;;;;;;;1999.90;999.90;;;10.30;99.90;;;;;;5051869;28;20040;-75
2022/07/05 00:56:55;;;;;;;1999.90;999.90;;;10.40;99.90;;;;;;5050359;28;20127;-75
2022/07/05 00:59:21;;;;;;;1999.90;999.90;;;10.50;99.90;;;;;;5069174;28;20172;-75
2022/07/05 01:01:47;;;;;;;1999.90;999.90;;;10.60;99.90;;;;;;5068926;28;20051;-75
2022/07/05 01:04:13;;;;;;;1999.90;999.90;;;10.60;99.90;;;;;;5065623;28;20052;-75
2022/07/05 01:06:42;;;;;;;1999.90;999.90;;;10.70;99.90;;;;;;5092911;28;20040;-75
2022/07/05 01:09:12;;;;;;;1999.90;999.90;;;10.70;99.90;;;;;;5083950;28;20050;-75
2022/07/05 01:11:38;;;;;;;1999.90;999.90;;;10.70;99.90;;;;;;5068117;28;20040;-76
2022/07/05 01:14:07;;;;;;;1999.90;999.90;;;10.70;99.90;;;;;;5102427;28;20036;-75
2022/07/05 01:16:33;;;;;;;1999.90;999.90;;;10.70;99.90;;;;;;5066637;28;20390;-75
2022/07/05 01:18:59;;;;;;;1999.90;999.90;;;10.70;99.90;;;;;;5068809;28;20507;-75
2022/07/05 01:21:28;;;;;;;1999.90;999.90;;;10.70;99.90;;;;;;5069807;28;20131;-75
2022/07/05 01:23:53;;;;;;;1999.90;999.90;;;10.60;99.90;;;;;;5084293;28;20049;-75
2022/07/05 01:26:19;;;;;;;1999.90;999.90;;;10.60;99.90;;;;;;5086864;28;20417;-75
2022/07/05 01:28:45;;;;;;;1999.90;999.90;;;10.50;99.90;;;;;;5055961;28;20382;-75
2022/07/05 01:31:11;;;;;;;1999.90;999.90;;;10.50;99.90;;;;;;5073389;28;20101;-75
2022/07/05 01:33:36;;;;;;;1999.90;999.90;;;10.40;99.90;;;;;;5072130;28;20039;-75
2022/07/05 01:36:03;;;;;;;1999.90;999.90;;;10.40;99.90;;;;;;5069368;28;20056;-75
2022/07/05 01:38:29;;;;;;;1999.90;999.90;;;10.30;99.90;;;;;;5098434;28;20173;-75
2022/07/05 01:40:54;;;;;;;1999.90;999.90;;;10.20;99.90;;;;;;5059281;28;20539;-75
2022/07/05 01:43:23;;;;;;;1999.90;999.90;;;10.20;99.90;;;;;;5051554;28;20051;-75
2022/07/05 01:45:50;;;;;;;1999.90;999.90;;;10.20;99.90;;;;;;5055370;28;20050;-75
2022/07/05 01:48:18;;;;;;;1999.90;999.90;;;10.20;99.90;;;;;;5059073;28;20385;-75
2022/07/05 01:50:52;;;;;;;1999.90;999.90;;;10.20;99.90;;;;;;5106542;28;20032;-76
2022/07/05 01:53:20;;;;;;;1999.90;999.90;;;10.10;99.90;;;;;;5055235;28;20036;-75
2022/07/05 01:55:46;;;;;;;1999.90;999.90;;;10.20;99.90;;;;;;5095929;28;20040;-75
2022/07/05 01:58:12;;;;;;;1999.90;999.90;;;10.10;99.90;;;;;;5073274;28;20419;-75
2022/07/05 02:00:48;;;;;;;1999.90;999.90;;;10.10;99.90;;;;;;5054350;28;20044;-75
2022/07/05 02:03:15;;;;;;;1999.90;999.90;;;10.10;99.90;;;;;;5104863;28;20393;-75
2022/07/05 02:05:42;;;;;;;1999.90;999.90;;;10.10;99.90;;;;;;5105179;28;20051;-75
2022/07/05 02:08:07;;;;;;;1999.90;999.90;;;10.00;99.90;;;;;;5069506;28;20501;-75
2022/07/05 02:10:35;;;;;;;1999.90;999.90;;;10.00;99.90;;;;;;5103475;28;20067;-75
2022/07/05 02:13:01;;;;;;;1999.90;999.90;;;9.90;99.90;;;;;;5098378;28;20032;-75
2022/07/05 02:15:29;;;;;;;1999.90;999.90;;;9.90;99.90;;;;;;5087709;28;20046;-75
2022/07/05 02:17:55;;;;;;;1999.90;999.90;;;9.80;99.90;;;;;;5106771;28;20039;-75
2022/07/05 02:20:20;;;;;;;1999.90;999.90;;;9.80;99.90;;;;;;5066244;28;20566;-75
2022/07/05 02:22:46;;;;;;;1999.90;999.90;;;9.80;99.90;;;;;;5089368;28;20536;-75
2022/07/05 02:25:12;;;;;;;1999.90;999.90;;;9.80;99.90;;;;;;5087281;28;20186;-75
2022/07/05 02:27:37;;;;;;;1999.90;999.90;;;9.80;99.90;;;;;;5072090;28;20040;-75
2022/07/05 02:30:03;;;;;;;1999.90;999.90;;;9.80;99.90;;;;;;5094627;28;20141;-75
2022/07/05 02:32:31;;;;;;;1999.90;999.90;;;9.80;99.90;;;;;;5102627;28;20028;-75
2022/07/05 02:34:57;;;;;;;1999.90;999.90;;;9.70;99.90;;;;;;5070530;28;20036;-75
2022/07/05 02:37:22;;;;;;;1999.90;999.90;;;9.70;99.90;;;;;;5102011;28;20055;-75
2022/07/05 02:39:48;;;;;;;1999.90;999.90;;;9.70;99.90;;;;;;5071408;28;20051;-75
2022/07/05 02:42:14;;;;;;;1999.90;999.90;;;9.70;99.90;;;;;;5072345;28;20127;-75
2022/07/05 02:44:39;;;;;;;1999.90;999.90;;;9.70;99.90;;;;;;5082266;28;20464;-75
2022/07/05 02:47:05;;;;;;;1999.90;999.90;;;9.70;99.90;;;;;;5055261;28;20492;-75
2022/07/05 02:49:30;;;;;;;1999.90;999.90;;;9.80;99.90;;;;;;5083440;28;20036;-75
2022/07/05 02:51:56;;;;;;;1999.90;999.90;;;9.80;99.90;;;;;;5071709;28;20066;-75
2022/07/05 02:54:22;;;;;;;1999.90;999.90;;;9.80;99.90;;;;;;5067499;28;20482;-75
2022/07/05 02:56:47;;;;;;;1999.90;999.90;;;9.70;99.90;;;;;;5071900;28;20453;-75
2022/07/05 02:59:13;;;;;;;1999.90;999.90;;;9.70;99.90;;;;;;5066621;28;20044;-75
2022/07/05 03:01:39;;;;;;;1999.90;999.90;;;9.60;99.90;;;;;;5054390;28;20046;-75
2022/07/05 03:04:06;;;;;;;1999.90;999.90;;;9.60;99.90;;;;;;5054859;28;20059;-75
2022/07/05 03:06:32;;;;;;;1999.90;999.90;;;9.60;99.90;;;;;;5069558;28;20036;-75
2022/07/05 03:08:58;;;;;;;1999.90;999.90;;;9.60;99.90;;;;;;5053828;28;20028;-75
2022/07/05 03:11:23;;;;;;;1999.90;999.90;;;9.60;99.90;;;;;;5070388;28;20109;-75
2022/07/05 03:13:49;;;;;;;1999.90;999.90;;;9.60;99.90;;;;;;5102233;28;20558;-75
2022/07/05 03:16:15;;;;;;;1999.90;999.90;;;9.60;99.90;;;;;;5075077;28;20051;-75
2022/07/05 03:18:40;;;;;;;1999.90;999.90;;;9.60;99.90;;;;;;5103013;28;20047;-75
2022/07/05 03:21:06;;;;;;;1999.90;999.90;;;9.50;99.90;;;;;;5087534;28;20063;-75
2022/07/05 03:23:31;;;;;;;1999.90;999.90;;;9.50;99.90;;;;;;5087876;28;20135;-75
2022/07/05 03:25:57;;;;;;;1999.90;999.90;;;9.50;99.90;;;;;;5051932;28;20047;-75
2022/07/05 03:28:22;;;;;;;1999.90;999.90;;;9.50;99.90;;;;;;5070392;28;20078;-76
2022/07/05 03:30:48;;;;;;;1999.90;999.90;;;9.50;99.90;;;;;;5067081;28;20469;-75
2022/07/05 03:33:14;;;;;;;1999.90;999.90;;;9.50;99.90;;;;;;5103413;28;20040;-75
2022/07/05 03:35:39;;;;;;;1999.90;999.90;;;9.50;99.90;;;;;;5087032;28;20044;-75
2022/07/05 03:38:05;;;;;;;1999.90;999.90;;;9.50;99.90;;;;;;5070420;28;20123;-75
2022/07/05 03:40:31;;;;;;;1999.90;999.90;;;9.50;99.90;;;;;;5068295;28;20056;-75
2022/07/05 03:42:56;;;;;;;1999.90;999.90;;;9.60;99.90;;;;;;5071408;28;20075;-75
2022/07/05 03:45:22;;;;;;;1999.90;999.90;;;9.60;99.90;;;;;;5090477;28;20049;-75
2022/07/05 03:47:47;;;;;;;1999.90;999.90;;;9.70;99.90;;;;;;5069509;28;20055;-75
2022/07/05 03:50:13;;;;;;;1999.90;999.90;;;9.80;99.90;;;;;;5068907;28;20111;-75
2022/07/05 03:52:39;;;;;;;1999.90;999.90;;;9.80;99.90;;;;;;5083379;28;20064;-75
2022/07/05 03:55:05;;;;;;;1999.90;999.90;;;9.90;99.90;;;;;;5085492;28;20494;-75
2022/07/05 03:57:30;;;;;;;1999.90;999.90;;;9.90;99.90;;;;;;5069883;28;20078;-75
2022/07/05 03:59:56;;;;;;;1999.90;999.90;;;10.00;99.90;;;;;;5086132;28;20044;-75
2022/07/05 04:02:22;;;;;;;1999.90;999.90;;;10.00;99.90;;;;;;5085354;28;20514;-75
2022/07/05 04:04:47;;;;;;;1999.90;999.90;;;10.10;99.90;;;;;;5085308;28;20371;-75
2022/07/05 04:07:13;;;;;;;1999.90;999.90;;;10.20;99.90;;;;;;5054214;28;20040;-76
2022/07/05 04:09:39;;;;;;;1999.90;999.90;;;10.30;99.90;;;;;;5086025;28;20082;-76
2022/07/05 04:12:05;;;;;;;1999.90;999.90;;;10.40;99.90;;;;;;5101247;28;20362;-75
2022/07/05 04:14:31;;;;;;;1999.90;999.90;;;10.50;99.90;;;;;;5095649;28;20040;-76
2022/07/05 04:16:57;;;;;;;1999.90;999.90;;;10.70;99.90;;;;;;5052786;28;20405;-76
2022/07/05 04:19:22;;;;;;;1999.90;999.90;;;10.80;99.90;;;;;;5084855;28;20066;-75
2022/07/05 04:21:48;;;;;;;1999.90;999.90;;;11.00;99.90;;;;;;5070791;28;20040;-76
2022/07/05 04:24:14;;;;;;;1999.90;999.90;;;11.10;99.90;;;;;;5052292;28;20042;-76
2022/07/05 04:26:39;;;;;;;1999.90;999.90;;;11.30;99.90;;;;;;5082510;28;20052;-76
2022/07/05 04:29:05;;;;;;;1999.90;999.90;;;11.40;99.90;;;;;;5051714;28;20036;-76
2022/07/05 04:31:31;;;;;;;1999.90;999.90;;;11.50;99.90;;;;;;5068962;28;20040;-76
2022/07/05 04:33:56;;;;;;;1999.90;999.90;;;11.70;99.90;;;;;;5052024;28;20067;-76
2022/07/05 04:36:22;;;;;;;1999.90;999.90;;;11.80;99.90;;;;;;5067040;28;20044;-76
2022/07/05 04:38:47;;;;;;;1999.90;999.90;;;11.90;99.90;;;;;;5082686;28;20123;-76
2022/07/05 04:41:13;;;;;;;1999.90;999.90;;;12.10;99.90;;;;;;5063246;28;20056;-76
2022/07/05 04:43:39;;;;;;;1999.90;999.90;;;12.20;99.90;;;;;;5068057;28;20071;-76
2022/07/05 04:46:04;;;;;;;1999.90;999.90;;;12.30;99.90;;;;;;5068147;28;20123;-76
2022/07/05 04:48:30;;;;;;;1999.90;999.90;;;12.40;99.90;;;;;;5068176;28;20072;-76
2022/07/05 04:50:55;;;;;;;1999.90;999.90;;;12.40;99.90;;;;;;5083140;28;20120;-76
2022/07/05 04:53:21;;;;;;;1999.90;999.90;;;12.40;99.90;;;;;;5067656;28;20382;-76
2022/07/05 04:55:47;;;;;;;1999.90;999.90;;;12.30;99.90;;;;;;5069379;28;20592;-76
2022/07/05 04:58:12;;;;;;;1999.90;999.90;;;12.40;99.90;;;;;;5059673;28;20409;-76
2022/07/05 05:00:38;;;;;;;1999.90;999.90;;;12.40;99.90;;;;;;5056824;28;20044;-76
2022/07/05 05:03:04;;;;;;;1999.90;999.90;;;12.40;99.90;;;;;;5073303;28;20126;-76
2022/07/05 05:05:29;;;;;;;1999.90;999.90;;;12.50;99.90;;;;;;5089207;28;20485;-76
2022/07/05 05:07:55;;;;;;;1999.90;999.90;;;12.60;99.90;;;;;;5088420;28;20065;-76
2022/07/05 05:10:20;;;;;;;1999.90;999.90;;;12.70;99.90;;;;;;5056831;28;20403;-76
2022/07/05 05:12:46;;;;;;;1999.90;999.90;;;12.80;99.90;;;;;;5068429;28;20048;-76
2022/07/05 05:15:12;;;;;;;1999.90;999.90;;;13.10;99.90;;;;;;5073744;28;20444;-76
2022/07/05 05:17:39;;;;;;;1999.90;999.90;;;13.60;99.90;;;;;;5070450;28;20131;-76
2022/07/05 05:20:16;;;;;;;1999.90;999.90;;;14.10;99.90;;;;;;5055317;28;20047;-76
2022/07/05 05:22:41;;;;;;;1999.90;999.90;;;14.60;99.90;;;;;;5105202;28;20040;-76
2022/07/05 05:25:08;;;;;;;1999.90;999.90;;;14.90;99.90;;;;;;5073458;28;20051;-76
2022/07/05 05:27:35;;;;;;;1999.90;999.90;;;15.10;99.90;;;;;;5078954;28;20122;-76
2022/07/05 05:30:00;;;;;;;1999.90;999.90;;;15.00;99.90;;;;;;5074577;28;20046;-76
2022/07/05 05:32:26;;;;;;;1999.90;999.90;;;14.90;99.90;;;;;;5057201;28;20059;-76
2022/07/05 05:34:52;;;;;;;1999.90;999.90;;;14.80;99.90;;;;;;5069463;28;20036;-76
2022/07/05 05:37:17;;;;;;;1999.90;999.90;;;14.80;99.90;;;;;;5056546;28;20046;-76
2022/07/05 05:39:43;;;;;;;1999.90;999.90;;;14.80;99.90;;;;;;5073351;28;20070;-75
2022/07/05 05:42:09;;;;;;;1999.90;999.90;;;14.90;99.90;;;;;;5056713;28;20178;-76
2022/07/05 05:44:34;;;;;;;1999.90;999.90;;;15.00;99.90;;;;;;5095993;28;20046;-76
2022/07/05 05:47:00;;;;;;;1999.90;999.90;;;15.10;99.90;;;;;;5079356;28;20084;-76
2022/07/05 05:49:27;;;;;;;1999.90;999.90;;;15.20;99.90;;;;;;5051621;28;20048;-76
2022/07/05 05:51:52;;;;;;;1999.90;999.90;;;15.30;99.90;;;;;;5087109;28;20089;-76
2022/07/05 05:54:18;;;;;;;1999.90;999.90;;;15.50;99.90;;;;;;5071523;28;20466;-76
2022/07/05 05:56:43;;;;;;;1999.90;999.90;;;15.70;99.90;;;;;;5073198;28;20036;-76
2022/07/05 05:59:09;;;;;;;1999.90;999.90;;;15.80;99.90;;;;;;5073644;28;20051;-75
2022/07/05 06:01:34;;;;;;;1999.90;999.90;;;16.00;99.90;;;;;;5084261;28;20127;-75
2022/07/05 06:04:00;;;;;;;1999.90;999.90;;;16.10;99.90;;;;;;5091223;28;20082;-76
2022/07/05 06:06:26;;;;;;;1999.90;999.90;;;16.50;99.90;;;;;;5074156;28;20093;-75
2022/07/05 06:08:51;;;;;;;1999.90;999.90;;;17.00;99.90;;;;;;5055617;28;20093;-76
2022/07/05 06:11:21;;;;;;;1999.90;999.90;;;17.40;99.90;;;;;;5084709;28;20036;-76
2022/07/05 06:13:46;;;;;;;1999.90;999.90;;;17.90;99.90;;;;;;5077132;28;20036;-76
2022/07/05 06:16:12;;;;;;;1999.90;999.90;;;18.80;99.90;;;;;;5072361;28;20417;-76
2022/07/05 06:18:37;;;;;;;1999.90;999.90;;;19.70;99.90;;;;;;5059284;28;20040;-75
2022/07/05 06:21:03;;;;;;;1999.90;999.90;;;20.60;99.90;;;;;;5079279;28;20466;-76
2022/07/05 06:23:29;;;;;;;1999.90;999.90;;;21.00;99.90;;;;;;5057265;28;20060;-76
2022/07/05 06:25:54;;;;;;;1999.90;999.90;;;21.50;99.90;;;;;;5106452;28;20036;-76
2022/07/05 06:28:20;;;;;;;1999.90;999.90;;;22.10;99.90;;;;;;5083556;28;20530;-76
2022/07/05 06:30:45;;;;;;;1999.90;999.90;;;22.30;99.90;;;;;;5072465;28;20083;-76
2022/07/05 06:33:11;;;;;;;1999.90;999.90;;;22.80;99.90;;;;;;5104991;28;20292;-76
2022/07/05 06:35:37;;;;;;;1999.90;999.90;;;23.10;99.90;;;;;;5069512;28;20028;-76
2022/07/05 06:38:04;;;;;;;1999.90;999.90;;;23.40;99.90;;;;;;5062239;28;20078;-77
2022/07/05 06:40:32;;;;;;;1999.90;999.90;;;23.60;99.90;;;;;;5053890;28;20052;-76
2022/07/05 06:42:59;;;;;;;1999.90;999.90;;;23.80;99.90;;;;;;5068330;28;20432;-77
2022/07/05 06:45:25;;;;;;;1999.90;999.90;;;24.20;99.90;;;;;;5067606;28;20040;-77
2022/07/05 06:48:00;;;;;;;1999.90;999.90;;;24.30;98.40;;;;;;5097162;28;20048;-76
2022/07/05 06:50:27;;;;;;;1999.90;999.90;;;24.60;99.60;;;;;;5062285;28;20067;-77
2022/07/05 06:52:53;;;;;;;1999.90;999.90;;;24.70;95.80;;;;;;5072226;28;20044;-77
2022/07/05 06:55:19;;;;;;;1999.90;999.90;;;24.80;96.90;;;;;;5065855;28;20040;-76
2022/07/05 06:57:45;;;;;;;1999.90;999.90;;;25.00;93.60;;;;;;5065702;28;20139;-76
2022/07/05 07:00:13;;;;;;;1999.90;999.90;;;24.80;93.70;;;;;;5072209;28;20071;-77
2022/07/05 07:02:39;;;;;;;1999.90;999.90;;;24.40;91.40;;;;;;5067677;28;20092;-76
2022/07/05 07:05:05;;;;;;;1999.90;999.90;;;23.80;91.90;;;;;;5055529;28;20040;-77
2022/07/05 07:10:16;;;;;;;1999.90;999.90;;;23.60;91.70;;;;;;5087927;28;20047;-76
2022/07/05 07:12:41;;;;;;;1999.90;999.90;;;23.70;91.30;;;;;;5088672;28;20040;-77
2022/07/05 07:15:07;;;;;;;1999.90;999.90;;;23.80;90.30;;;;;;5068448;28;20906;-77
2022/07/05 07:17:33;;;;;;;1999.90;999.90;;;23.30;91.00;;;;;;5094548;28;20139;-78
2022/07/05 07:19:59;;;;;;;1999.90;999.90;;;23.20;90.90;;;;;;5054434;28;20186;-76
2022/07/05 07:22:24;;;;;;;1999.90;999.90;;;23.40;90.60;;;;;;5055196;28;20054;-77
2022/07/05 07:24:50;;;;;;;1999.90;999.90;;;23.60;89.70;;;;;;5062411;28;20048;-74
2022/07/05 07:27:16;;;;;;;1999.90;999.90;;;23.40;86.90;;;;;;5070476;28;20123;-77
2022/07/05 07:29:42;;;;;;;1999.90;999.90;;;23.30;86.10;;;;;;5086924;28;20035;-77
2022/07/05 07:32:09;;;;;;;1999.90;999.90;;;23.50;88.50;;;;;;5054841;28;20036;-78
2022/07/05 07:34:36;;;;;;;1999.90;999.90;;;23.90;88.50;;;;;;5088304;28;20048;-76
2022/07/05 07:37:02;;;;;;;1999.90;999.90;;;24.10;81.80;;;;;;5105221;28;20063;-77
2022/07/05 07:39:28;;;;;;;1999.90;999.90;;;24.00;80.20;;;;;;5059612;28;20043;-77
2022/07/05 07:41:54;;;;;;;1999.90;999.90;;;24.00;81.90;;;;;;5053832;28;20126;-77
2022/07/05 07:44:20;;;;;;;1999.90;999.90;;;23.80;77.80;;;;;;5073504;28;20067;-77
2022/07/05 07:46:46;;;;;;;1999.90;999.90;;;23.70;79.00;;;;;;5079683;28;20040;-77
2022/07/05 07:49:12;;;;;;;1999.90;999.90;;;23.70;79.00;;;;;;5085538;28;20040;-77
2022/07/05 07:51:39;;;;;;;1999.90;999.90;;;23.70;80.20;;;;;;5114149;27;20059;-77
2022/07/05 07:54:05;;;;;;;1999.90;999.90;;;23.70;79.30;;;;;;5080549;28;20032;-76
2022/07/05 07:56:33;;;;;;;1999.90;999.90;;;23.80;82.00;;;;;;5064001;28;20059;-76
2022/07/05 07:58:59;;;;;;;1999.90;999.90;;;24.00;84.10;;;;;;5054723;28;20051;-76
2022/07/05 08:01:27;;;;;;;1999.90;999.90;;;24.30;79.60;;;;;;5066809;28;20080;-77
2022/07/05 08:03:53;;;;;;;1999.90;999.90;;;24.50;77.20;;;;;;5069791;28;20534;-77
2022/07/05 08:06:19;;;;;;;1999.90;999.90;;;24.40;75.10;;;;;;5070171;28;20123;-77
2022/07/05 08:08:45;;;;;;;1999.90;999.90;;;24.50;77.00;;;;;;5084269;28;20055;-76
2022/07/05 08:11:12;;;;;;;1999.90;999.90;;;24.30;77.00;;;;;;5053708;28;20047;-76
2022/07/05 08:13:40;;;;;;;1999.90;999.90;;;24.00;74.30;;;;;;5065613;28;20152;-77
2022/07/05 08:16:07;;;;;;;1999.90;999.90;;;23.60;74.50;;;;;;5069780;28;20040;-77
2022/07/05 08:21:38;;;;;;;1999.90;999.90;;;23.10;74.80;;;;;;5083198;28;20040;-76
2022/07/05 08:24:04;;;;;;;1999.90;999.90;;;23.10;77.50;;;;;;5050231;28;20032;-74
2022/07/05 08:26:30;;;;;;;1999.90;999.90;;;23.30;76.20;;;;;;5076435;28;20039;-76
2022/07/05 08:28:58;;;;;;;1999.90;999.90;;;23.00;75.60;;;;;;5076744;28;20093;-78
2022/07/05 08:31:24;;;;;;;1999.90;999.90;;;22.70;75.50;;;;;;5060793;28;20036;-76
2022/07/05 08:33:50;;;;;;;1999.90;999.90;;;22.20;75.40;;;;;;5066804;28;20093;-77
2022/07/05 08:36:16;;;;;;;1999.90;999.90;;;21.70;77.10;;;;;;5075963;28;20039;-76
2022/07/05 08:38:42;;;;;;;1999.90;999.90;;;21.60;80.00;;;;;;5103744;28;20055;-76
2022/07/05 08:41:10;;;;;;;1999.90;999.90;;;22.10;81.10;;;;;;5095176;28;20052;-77
2022/07/05 08:43:39;;;;;;;1999.90;999.90;;;22.90;80.60;;;;;;5097262;28;20047;-76
2022/07/05 08:46:08;;;;;;;1999.90;999.90;;;23.60;77.70;;;;;;5094218;28;20039;-73
2022/07/05 08:48:41;;;;;;;1999.90;999.90;;;23.80;75.40;;;;;;5058704;28;20047;-77
2022/07/05 08:51:22;;;;;;;1999.90;999.90;;;23.90;75.30;;;;;;5104353;28;20063;-76
2022/07/05 08:53:49;;;;;;;1999.90;999.90;;;23.70;73.70;;;;;;5062234;28;20076;-76
2022/07/05 08:56:16;;;;;;;1999.90;999.90;;;23.60;75.30;;;;;;5070368;28;20118;-77
2022/07/05 08:58:41;;;;;;;1999.90;999.90;;;23.80;74.90;;;;;;5083648;28;20117;-77
2022/07/05 09:01:09;;;;;;;1999.90;999.90;;;24.00;74.20;;;;;;5080760;28;20044;-77
2022/07/05 09:03:51;;;;;;;1999.90;999.90;;;23.60;72.40;;;;;;5103721;28;20040;-76
2022/07/05 09:06:22;;;;;;;1999.90;999.90;;;22.70;71.70;;;;;;5045894;28;20067;-76
2022/07/05 09:08:51;;;;;;;1999.90;999.90;;;21.80;72.30;;;;;;5098895;28;20075;-76
2022/07/05 09:11:23;;;;;;;1999.90;999.90;;;21.00;75.20;;;;;;5083091;28;20040;-76
2022/07/05 09:13:50;;;;;;;1999.90;999.90;;;20.80;76.20;;;;;;5070538;28;20135;-76
2022/07/05 09:16:16;;;;;;;1999.90;999.90;;;21.30;77.20;;;;;;5058705;28;20751;-75
2022/07/05 09:18:48;;;;;;;1999.90;999.90;;;22.20;77.00;;;;;;5058396;28;20048;-77
2022/07/05 09:21:23;;;;;;;;;;;22.90;76.00;;;;;;5089314;28;20136;-77
2022/07/05 09:24:04;;;;;;;1999.90;999.90;;;22.80;75.10;;;;;;5074142;28;20420;-77
2022/07/05 09:26:52;;;;;;;1999.90;999.90;;;22.30;72.50;;;;;;5058866;28;20040;-75
2022/07/05 09:29:20;;;;;;;1999.90;999.90;;;21.60;76.60;;;;;;5079983;28;20312;-75
2022/07/05 09:31:52;;;;;;;1999.90;999.90;;;21.20;77.80;;;;;;5093526;28;20520;-76
2022/07/05 09:34:19;;;;;;;1999.90;999.90;;;20.90;77.50;;;;;;5071705;28;20048;-76
2022/07/05 09:37:02;;;;;;;1999.90;999.90;;;20.70;78.10;;;;;;5071683;28;20138;-76
2022/07/05 09:39:35;;;;;;;1999.90;999.90;;;20.40;79.10;;;;;;5097876;28;20047;-75
2022/07/05 09:42:23;;;;;;;1999.90;999.90;;;20.40;80.30;;;;;;5076235;28;20043;-76
2022/07/05 09:45:07;;;;;;;1999.90;999.90;;;20.90;81.40;;;;;;5052297;28;20127;-76
2022/07/05 09:47:51;;;;;;;1999.90;999.90;;;21.10;81.90;;;;;;5055086;28;20533;-76
2022/07/05 10:03:02;;;;;;;1999.90;999.90;;;21.40;82.40;;;;;;5072678;28;20393;-76
2022/07/05 10:06:24;;;;;;;1999.90;999.90;;;22.20;83.00;;;;;;5093496;28;20051;-76
2022/07/05 10:18:38;;;;;;;1999.90;999.90;;;21.70;74.80;;;;;;5101969;28;20186;-76
2022/07/05 10:21:07;;;;;;;1999.90;999.90;;;21.20;76.00;;;;;;5051816;28;20039;-76
2022/07/05 10:23:33;;;;;;;1999.90;999.90;;;20.90;77.00;;;;;;5075883;28;20453;-76
2022/07/05 10:25:59;;;;;;;1999.90;999.90;;;20.70;78.40;;;;;;5083555;28;20040;-76
2022/07/05 10:28:25;;;;;;;1999.90;999.90;;;20.70;79.00;;;;;;5072341;28;20299;-76
2022/07/05 10:30:51;;;;;;;1999.90;999.90;;;21.10;82.10;;;;;;5078868;28;20066;-77
2022/07/05 10:33:25;;;;;;;1999.90;999.90;;;21.60;78.90;;;;;;5075092;28;20043;-76
2022/07/05 10:35:50;;;;;;;1999.90;999.90;;;22.10;77.90;;;;;;5097381;27;20037;-76
2022/07/05 10:38:17;;;;;;;1999.90;999.90;;;22.60;78.40;;;;;;5079940;28;20036;-76
2022/07/05 10:40:45;;;;;;;1999.90;999.90;;;22.80;76.60;;;;;;5042943;28;20044;-75
2022/07/05 10:43:13;;;;;;;1999.90;999.90;;;22.50;72.20;;;;;;5054811;28;20621;-75
2022/07/05 10:45:41;;;;;;;1999.90;999.90;;;22.00;73.20;;;;;;5049941;28;20036;-77
2022/07/05 10:48:09;;;;;;;1999.90;999.90;;;21.60;74.30;;;;;;5040136;28;20509;-75
2022/07/05 10:50:45;;;;;;;1999.90;999.90;;;21.40;74.40;;;;;;5085303;28;20135;-76
2022/07/05 10:53:12;;;;;;;1999.90;999.90;;;21.40;75.50;;;;;;5068938;28;20035;-76
2022/07/05 10:55:52;;;;;;;1999.90;999.90;;;21.40;73.40;;;;;;5066283;28;20097;-76
2022/07/05 10:58:20;;;;;;;1999.90;999.90;;;21.30;74.90;;;;;;5052903;28;20036;-76
2022/07/05 11:00:47;;;;;;;1999.90;999.90;;;21.20;74.70;;;;;;5067929;28;20083;-76
2022/07/05 11:03:34;;;;;;;1999.90;999.90;;;21.10;75.40;;;;;;5052108;28;20047;-75
2022/07/05 11:06:01;;;;;;;1999.90;999.90;;;21.10;76.40;;;;;;5101082;27;20039;-75
2022/07/05 11:08:27;;;;;;;1999.90;999.90;;;21.20;77.90;;;;;;5066126;28;20040;-76
2022/07/05 11:11:13;;;;;;;1999.90;999.90;;;21.50;77.60;;;;;;5067708;28;20523;-76
2022/07/05 11:13:47;;;;;;;1999.90;999.90;;;21.70;78.90;;;;;;5050740;28;20172;-75
2022/07/05 11:16:23;;;;;;;1999.90;999.90;;;22.10;74.50;;;;;;5069091;28;20048;-76
2022/07/05 11:19:03;;;;;;;1999.90;999.90;;;22.50;75.00;;;;;;5059117;28;20039;-76
2022/07/05 11:21:29;;;;;;;1999.90;999.90;;;22.80;76.30;;;;;;5068292;28;20044;-75
2022/07/05 11:24:18;;;;;;;1999.90;999.90;;;23.10;73.20;;;;;;5084575;28;20387;-76
2022/07/05 11:26:44;;;;;;;1999.90;999.90;;;23.30;71.50;;;;;;5068264;28;20067;-76
2022/07/05 11:29:39;;;;;;;1999.90;999.90;;;23.40;70.40;;;;;;5101672;27;20459;-75
2022/07/05 11:32:13;;;;;;;1999.90;999.90;;;23.40;68.30;;;;;;5086688;28;20059;-76
2022/07/05 11:34:40;;;;;;;1999.90;999.90;;;23.50;71.30;;;;;;5079657;28;20071;-76
2022/07/05 11:37:28;;;;;;;1999.90;999.90;;;23.50;69.40;;;;;;5069873;28;20101;-75
2022/07/05 11:40:11;;;;;;;1999.90;999.90;;;23.60;70.20;;;;;;5069267;28;20129;-75
2022/07/05 11:42:45;;;;;;;1999.90;999.90;;;23.80;69.10;;;;;;5069866;28;20545;-75
2022/07/05 11:45:11;;;;;;;1999.90;999.90;;;23.80;66.50;;;;;;5093034;28;20039;-77
2022/07/05 11:47:37;;;;;;;1999.90;999.90;;;23.50;65.90;;;;;;5055738;28;20078;-73
2022/07/05 11:50:03;;;;;;;1999.90;999.90;;;23.00;68.20;;;;;;5076897;28;20040;-75
2022/07/05 11:52:34;;;;;;;1999.90;999.90;;;22.40;69.20;;;;;;5067891;28;20161;-76
2022/07/05 11:55:01;;;;;;;1999.90;999.90;;;21.70;71.90;;;;;;5065805;28;20041;-75
2022/07/05 11:57:27;;;;;;;1999.90;999.90;;;21.00;75.60;;;;;;5083976;28;20044;-75
2022/07/05 11:59:53;;;;;;;1999.90;999.90;;;20.40;78.80;;;;;;5063123;28;20048;-75
2022/07/05 12:02:18;;;;;;;1999.90;999.90;;;20.50;82.10;;;;;;5095785;28;20516;-74
2022/07/05 12:04:55;;;;;;;1999.90;999.90;;;20.70;80.10;;;;;;5043401;28;20055;-77
2022/07/05 12:07:28;;;;;;;1999.90;999.90;;;20.60;79.80;;;;;;5079351;28;20044;-73
2022/07/05 12:12:43;;;;;;;1999.90;999.90;;;20.00;82.00;;;;;;5067369;28;20044;-76
2022/07/05 12:15:09;;;;;;;1999.90;999.90;;;19.80;83.70;;;;;;5070221;28;20132;-76
2022/07/05 12:17:36;;;;;;;1999.90;999.90;;;19.60;84.80;;;;;;5086223;28;20048;-76
2022/07/05 12:20:02;;;;;;;1999.90;999.90;;;19.60;88.80;;;;;;5068031;28;20119;-75
2022/07/05 12:22:35;;;;;;;1999.90;999.90;;;19.50;88.50;;;;;;5068120;28;20043;-75
2022/07/05 12:25:06;;;;;;;1999.90;999.90;;;19.50;89.70;;;;;;5068394;28;20318;-75
2022/07/05 12:27:33;;;;;;;1999.90;999.90;;;19.40;90.60;;;;;;5068316;28;20051;-76
2022/07/05 12:30:01;;;;;;;1999.90;999.90;;;19.50;90.70;;;;;;5086335;28;20032;-76
2022/07/05 12:32:29;;;;;;;1999.90;999.90;;;19.70;90.90;;;;;;5067213;28;20043;-76
2022/07/05 12:34:56;;;;;;;1999.90;999.90;;;19.80;90.30;;;;;;5052334;28;20059;-76